createdAt,value
2018-07-12T00:02:26.458Z,100203.00
2018-07-12T00:04:54.145Z,100210.00
2018-07-12T00:07:21.822Z,100205.00
2018-07-12T00:09:49.530Z,100204.00
2018-07-12T00:12:17.200Z,100206.00
2018-07-12T00:14:44.916Z,100199.00
2018-07-12T00:17:12.626Z,100201.00
2018-07-12T00:19:40.288Z,100198.00
2018-07-12T00:22:07.953Z,100203.00
2018-07-12T00:24:35.687Z,100204.00
2018-07-12T00:27:03.379Z,100197.00
2018-07-12T00:29:31.132Z,100196.00
2018-07-12T00:31:58.833Z,100198.00
2018-07-12T00:34:35.116Z,100193.00
2018-07-12T00:37:02.805Z,100195.00
2018-07-12T00:39:30.590Z,100192.00
2018-07-12T00:41:58.256Z,100199.00
2018-07-12T00:44:25.962Z,100198.00
2018-07-12T00:46:53.646Z,100204.00
2018-07-12T00:49:21.586Z,100202.00
2018-07-12T00:51:49.294Z,100202.00
2018-07-12T00:54:16.961Z,100201.00
2018-07-12T00:56:44.638Z,100209.00
2018-07-12T00:59:12.340Z,100206.00
2018-07-12T01:01:40.263Z,100207.00
2018-07-12T01:04:07.934Z,100206.00
2018-07-12T01:06:35.641Z,100201.00
2018-07-12T01:09:03.457Z,100207.00
2018-07-12T01:11:31.128Z,100206.00
2018-07-12T01:13:58.817Z,100210.00
2018-07-12T01:16:35.100Z,100203.00
2018-07-12T01:19:02.859Z,100209.00
2018-07-12T01:21:30.541Z,100207.00
2018-07-12T01:23:58.206Z,100201.00
2018-07-12T01:26:25.913Z,100201.00
2018-07-12T01:28:53.590Z,100210.00
2018-07-12T01:31:21.305Z,100204.00
2018-07-12T01:33:49.015Z,100201.00
2018-07-12T01:36:16.697Z,100202.00
2018-07-12T01:38:44.360Z,100198.00
2018-07-12T01:41:12.054Z,100208.00
2018-07-12T01:43:39.724Z,100195.00
2018-07-12T01:46:07.395Z,100202.00
2018-07-12T01:48:35.410Z,100200.00
2018-07-12T01:51:03.077Z,100195.00
2018-07-12T01:53:31.007Z,100195.00
2018-07-12T01:55:58.713Z,100192.00
2018-07-12T01:58:36.611Z,100192.00
2018-07-12T02:01:04.318Z,100192.00
2018-07-12T02:03:31.993Z,100198.00
2018-07-12T02:05:59.663Z,100196.00
2018-07-12T02:08:27.377Z,100195.00
2018-07-12T02:10:55.057Z,100197.00
2018-07-12T02:13:22.726Z,100186.00
2018-07-12T02:15:50.478Z,100192.00
2018-07-12T02:18:18.150Z,100183.00
2018-07-12T02:20:45.930Z,100188.00
2018-07-12T02:23:13.637Z,100189.00
2018-07-12T02:25:41.309Z,100183.00
2018-07-12T02:28:08.978Z,100179.00
2018-07-12T02:30:36.690Z,100177.00
2018-07-12T02:33:04.356Z,100174.00
2018-07-12T02:35:32.024Z,100172.00
2018-07-12T02:37:59.733Z,100169.00
2018-07-12T02:40:36.142Z,100171.00
2018-07-12T02:43:03.829Z,100173.00
2018-07-12T02:45:31.506Z,100164.00
2018-07-12T02:47:59.250Z,100165.00
2018-07-12T02:50:26.961Z,100163.00
2018-07-12T02:52:54.634Z,100165.00
2018-07-12T02:55:22.303Z,100161.00
2018-07-12T02:57:50.014Z,100164.00
2018-07-12T03:00:17.669Z,100161.00
2018-07-12T03:02:45.605Z,100163.00
2018-07-12T03:05:13.298Z,100167.00
2018-07-12T03:07:41.230Z,100166.00
2018-07-12T03:10:08.897Z,100167.00
2018-07-12T03:12:36.601Z,100167.00
2018-07-12T03:15:04.269Z,100165.00
2018-07-12T03:17:31.946Z,100167.00
2018-07-12T03:19:59.651Z,100167.00
2018-07-12T03:22:35.324Z,100170.00
2018-07-12T03:25:03.040Z,100168.00
2018-07-12T03:27:30.713Z,100167.00
2018-07-12T03:29:58.382Z,100173.00
2018-07-12T03:32:26.072Z,100174.00
2018-07-12T03:34:53.738Z,100183.00
2018-07-12T03:37:21.411Z,100174.00
2018-07-12T03:39:49.128Z,100174.00
2018-07-12T03:42:17.142Z,100185.00
2018-07-12T03:44:44.815Z,100185.00
2018-07-12T03:47:12.517Z,100177.00
2018-07-12T03:49:40.185Z,100170.00
2018-07-12T03:52:07.845Z,100176.00
2018-07-12T03:54:35.884Z,100181.00
2018-07-12T03:57:03.545Z,100180.00
2018-07-12T03:59:31.308Z,100182.00
2018-07-12T04:01:59.115Z,100183.00
2018-07-12T04:04:37.043Z,100177.00
2018-07-12T04:07:04.746Z,100178.00
2018-07-12T04:09:32.430Z,100182.00
2018-07-12T04:12:00.104Z,100174.00
2018-07-12T04:14:27.877Z,100181.00
2018-07-12T04:16:55.538Z,100177.00
2018-07-12T04:19:23.217Z,100177.00
2018-07-12T04:21:50.905Z,100167.00
2018-07-12T04:24:18.577Z,100157.00
2018-07-12T04:26:46.258Z,100156.00
2018-07-12T04:29:13.983Z,100158.00
2018-07-12T04:31:41.649Z,100156.00
2018-07-12T04:34:09.331Z,100166.00
2018-07-12T04:36:37.186Z,100168.00
2018-07-12T04:39:05.550Z,100167.00
2018-07-12T04:41:33.603Z,100166.00
2018-07-12T04:44:01.310Z,100167.00
2018-07-12T04:46:28.974Z,100172.00
2018-07-12T04:48:56.650Z,100169.00
2018-07-12T04:51:24.546Z,100167.00
2018-07-12T04:53:52.241Z,100167.00
2018-07-12T04:56:19.921Z,100165.00
2018-07-12T04:58:47.773Z,100182.00
2018-07-12T05:01:36.182Z,100174.00
2018-07-12T05:04:03.928Z,100174.00
2018-07-12T05:06:31.955Z,100171.00
2018-07-12T05:08:59.690Z,100171.00
2018-07-12T05:11:27.413Z,100169.00
2018-07-12T05:13:55.521Z,100173.00
2018-07-12T05:16:23.900Z,100181.00
2018-07-12T05:18:51.629Z,100175.00
2018-07-12T05:21:19.450Z,100169.00
2018-07-12T05:23:47.179Z,100178.00
2018-07-12T05:26:14.845Z,100184.00
2018-07-12T05:28:42.537Z,100169.00
2018-07-12T05:31:10.250Z,100170.00
2018-07-12T05:33:37.931Z,100175.00
2018-07-12T05:36:25.673Z,100167.00
2018-07-12T05:38:55.160Z,100169.00
2018-07-12T05:41:24.374Z,100170.00
2018-07-12T05:43:53.618Z,100172.00
2018-07-12T05:46:22.810Z,100168.00
2018-07-12T05:48:51.994Z,100170.00
2018-07-12T05:51:21.201Z,100176.00
2018-07-12T05:53:50.407Z,100175.00
2018-07-12T05:56:36.449Z,100166.00
2018-07-12T05:59:06.048Z,100163.00
2018-07-12T06:01:55.503Z,100167.00
2018-07-12T06:04:24.751Z,100166.00
2018-07-12T06:06:54.006Z,100163.00
2018-07-12T06:09:23.189Z,100167.00
2018-07-12T06:11:52.567Z,100171.00
2018-07-12T06:14:21.813Z,100167.00
2018-07-12T06:16:50.973Z,100175.00
2018-07-12T06:19:20.241Z,100171.00
2018-07-12T06:21:49.464Z,100165.00
2018-07-12T06:24:37.032Z,100169.00
2018-07-12T06:27:06.238Z,100174.00
2018-07-12T06:29:35.455Z,100176.00
2018-07-12T06:32:04.810Z,100171.00
2018-07-12T06:34:33.970Z,100172.00
2018-07-12T06:37:03.207Z,100177.00
2018-07-12T06:39:32.405Z,100178.00
2018-07-12T06:42:01.598Z,100175.00
2018-07-12T06:44:30.795Z,100181.00
2018-07-12T06:47:00.728Z,100173.00
2018-07-12T06:49:37.054Z,100183.00
2018-07-12T06:52:06.262Z,100175.00
2018-07-12T06:54:38.513Z,100182.00
2018-07-12T06:57:34.950Z,100171.00
2018-07-12T07:00:04.222Z,100174.00
2018-07-12T07:02:37.136Z,100170.00
2018-07-12T07:05:35.609Z,100177.00
2018-07-12T07:08:04.813Z,100179.00
2018-07-12T07:10:37.705Z,100167.00
2018-07-12T07:13:36.233Z,100162.00
2018-07-12T07:16:05.664Z,100170.00
2018-07-12T07:18:38.445Z,100160.00
2018-07-12T07:21:34.664Z,100166.00
2018-07-12T07:24:03.837Z,100167.00
2018-07-12T07:26:39.029Z,100165.00
2018-07-12T07:29:34.983Z,100163.00
2018-07-12T07:35:04.290Z,100158.00
2018-07-12T07:37:33.450Z,100155.00
2018-07-12T07:40:02.622Z,100156.00
2018-07-12T07:45:36.594Z,100155.00
2018-07-12T07:48:35.129Z,100157.00
2018-07-12T08:30:17.944Z,100154.00
2018-07-12T08:32:47.739Z,100147.00
2018-07-12T08:35:35.745Z,100148.00
2018-07-12T08:44:05.390Z,100140.00
2018-07-12T08:46:34.561Z,100141.00
2018-07-12T09:08:41.627Z,100133.00
2018-07-12T09:11:35.474Z,100130.00
2018-07-12T09:14:04.971Z,100136.00
2018-07-12T09:19:38.104Z,100140.00
2018-07-12T09:22:07.273Z,100145.00
2018-07-12T09:24:37.837Z,100147.00
2018-07-12T09:27:36.391Z,100143.00
2018-07-12T09:33:05.906Z,100160.00
2018-07-12T09:41:38.109Z,100172.00
2018-07-12T09:44:34.630Z,100169.00
2018-07-12T09:47:32.520Z,100169.00
2018-07-12T09:56:01.963Z,100166.00
2018-07-12T10:04:36.320Z,100159.00
2018-07-12T10:13:25.204Z,100156.00
2018-07-12T10:15:59.787Z,100170.00
2018-07-12T10:21:37.342Z,100199.00
2018-07-12T10:24:35.234Z,100213.00
2018-07-12T11:19:41.519Z,100251.00
2018-07-12T11:22:36.319Z,100254.00
2018-07-12T11:25:34.650Z,100253.00
2018-07-12T11:55:04.949Z,100258.00
2018-07-12T11:57:34.140Z,100255.00
2018-07-12T12:00:03.354Z,100249.00
2018-07-12T12:02:32.564Z,100237.00
2018-07-12T12:05:01.739Z,100229.00
2018-07-12T12:07:30.954Z,100223.00
2018-07-12T13:37:34.843Z,100145.00
2018-07-12T13:52:34.953Z,100131.00
2018-07-12T14:07:35.198Z,100114.00
2018-07-12T17:46:35.557Z,100078.00
2018-07-12T18:10:34.875Z,100069.00
2018-07-12T18:25:29.443Z,100082.00
2018-07-12T18:43:09.045Z,100094.00
2018-07-12T18:45:38.209Z,100094.00
2018-07-12T18:48:37.199Z,100104.00
2018-07-12T18:51:35.351Z,100105.00
2018-07-12T19:00:34.977Z,100121.00
2018-07-12T19:15:35.562Z,100126.00
2018-07-12T19:21:35.497Z,100131.00
2018-07-12T19:42:35.845Z,100143.00
2018-07-12T19:51:35.877Z,100139.00
2018-07-12T20:06:35.549Z,100144.00
2018-07-12T20:12:35.762Z,100151.00
2018-07-12T20:22:42.318Z,100142.00
2018-07-12T20:25:36.794Z,100156.00
2018-07-12T20:55:35.542Z,100170.00
2018-07-12T21:10:35.325Z,100177.00
2018-07-12T22:19:35.741Z,100205.00
2018-07-12T22:28:35.465Z,100209.00
2018-07-12T22:37:35.719Z,100222.00
2018-07-12T22:43:06.198Z,100226.00
2018-07-12T22:45:39.050Z,100227.00
2018-07-12T22:48:35.515Z,100232.00
2018-07-12T22:52:41.027Z,100233.00
2018-07-12T22:55:35.624Z,100225.00
2018-07-12T23:10:35.342Z,100228.00
2018-07-12T23:19:41.654Z,100242.00
2018-07-12T23:22:36.468Z,100253.00
2018-07-12T23:26:42.388Z,100259.00
2018-07-12T23:29:37.039Z,100252.00
2018-07-12T23:36:43.110Z,100254.00
2018-07-12T23:39:37.529Z,100249.00
2018-07-12T23:42:35.525Z,100259.00
2018-07-12T23:50:56.293Z,100252.00
2018-07-12T23:53:37.622Z,100248.00
2018-07-12T23:56:36.415Z,100254.00
